EZS1506 LDDU-LSGG
Flight info
| Callsign | EZS1506 |
|---|---|
| Flight time | 1h 44m |
| Altitude | 36000 |
| Route | AMUGO DCT RILIM DCT LURUT DCT EVANO DCT AOSTA L615 BANKO |
| Aircraft | A320/M-SDE2E3FGHIJ1RWXYZ/LB1 |
Departure
| Time | 2026-05-05 19:04 |
|---|---|
| Airport | Dubrovnik Ruđer Bošković Airport (LDDU) |
Arrival
| Time | 2026-05-05 20:49 |
|---|---|
| Airport | Geneva International Airport (LSGG) |
| Time | Latitude | Longitude | Altitude | Speed | Heading |
|---|---|---|---|---|---|
| 2026-05-05 18:23 | 42.56089 | 18.26303 | 534 ft | 0 kts | 208° |
| 2026-05-05 18:55 | 42.56094 | 18.26307 | 534 ft | 3 kts | 208° |
| 2026-05-05 18:55 | 42.56114 | 18.26321 | 534 ft | 3 kts | 208° |
| 2026-05-05 18:56 | 42.56129 | 18.26333 | 534 ft | 3 kts | 232° |
| 2026-05-05 18:56 | 42.56134 | 18.26355 | 534 ft | 3 kts | 290° |
| 2026-05-05 18:56 | 42.56125 | 18.26381 | 534 ft | 3 kts | 298° |
| 2026-05-05 18:56 | 42.56122 | 18.26389 | 534 ft | 0 kts | 298° |
| 2026-05-05 19:00 | 42.56130 | 18.26369 | 534 ft | 10 kts | 298° |
| 2026-05-05 19:00 | 42.56175 | 18.26256 | 534 ft | 13 kts | 298° |
| 2026-05-05 19:00 | 42.56216 | 18.26151 | 534 ft | 12 kts | 298° |
| 2026-05-05 19:00 | 42.56252 | 18.26060 | 534 ft | 10 kts | 298° |
| 2026-05-05 19:01 | 42.56294 | 18.25953 | 534 ft | 18 kts | 298° |
| 2026-05-05 19:01 | 42.56357 | 18.25787 | 534 ft | 19 kts | 297° |
| 2026-05-05 19:01 | 42.56415 | 18.25639 | 534 ft | 17 kts | 300° |
| 2026-05-05 19:01 | 42.56469 | 18.25511 | 534 ft | 15 kts | 300° |
| 2026-05-05 19:02 | 42.56518 | 18.25395 | 534 ft | 14 kts | 299° |
| 2026-05-05 19:02 | 42.56576 | 18.25245 | 534 ft | 22 kts | 298° |
| 2026-05-05 19:02 | 42.56653 | 18.25053 | 534 ft | 24 kts | 298° |
| 2026-05-05 19:02 | 42.56733 | 18.24851 | 534 ft | 25 kts | 297° |
| 2026-05-05 19:03 | 42.56790 | 18.24713 | 534 ft | 11 kts | 308° |
| 2026-05-05 19:03 | 42.56853 | 18.24672 | 533 ft | 11 kts | 358° |
| 2026-05-05 19:03 | 42.56933 | 18.24766 | 533 ft | 18 kts | 79° |
| 2026-05-05 19:03 | 42.56887 | 18.24928 | 533 ft | 20 kts | 117° |
| 2026-05-05 19:04 | 42.56770 | 18.25228 | 532 ft | 67 kts | 117° |
| 2026-05-05 19:04 | 42.56446 | 18.26058 | 534 ft | 127 kts | 118° |
| 2026-05-05 19:04 | 42.55956 | 18.27310 | 574 ft | 169 kts | 117° |
| 2026-05-05 19:04 | 42.55402 | 18.28676 | 1226 ft | 164 kts | 117° |
| 2026-05-05 19:05 | 42.54842 | 18.30074 | 1862 ft | 169 kts | 119° |
| 2026-05-05 19:05 | 42.54253 | 18.31565 | 2206 ft | 191 kts | 119° |
| 2026-05-05 19:05 | 42.53498 | 18.33154 | 2522 ft | 208 kts | 141° |
| 2026-05-05 19:05 | 42.52170 | 18.33802 | 3186 ft | 209 kts | 185° |
| 2026-05-05 19:06 | 42.50855 | 18.33006 | 3903 ft | 215 kts | 223° |
| 2026-05-05 19:06 | 42.49813 | 18.31543 | 4684 ft | 215 kts | 215° |
| 2026-05-05 19:06 | 42.48468 | 18.30681 | 5438 ft | 215 kts | 197° |
| 2026-05-05 19:06 | 42.47024 | 18.30157 | 6214 ft | 216 kts | 193° |
| 2026-05-05 19:07 | 42.45549 | 18.29718 | 6950 ft | 218 kts | 193° |
| 2026-05-05 19:07 | 42.44559 | 18.29434 | 7387 ft | 221 kts | 193° |
| 2026-05-05 19:07 | 42.42525 | 18.28839 | 8272 ft | 227 kts | 194° |
| 2026-05-05 19:07 | 42.40986 | 18.28297 | 8919 ft | 230 kts | 207° |
| 2026-05-05 19:08 | 42.39756 | 18.26960 | 9536 ft | 230 kts | 239° |
| 2026-05-05 19:08 | 42.39230 | 18.24899 | 9937 ft | 244 kts | 270° |
| 2026-05-05 19:08 | 42.39581 | 18.22556 | 10183 ft | 267 kts | 287° |
| 2026-05-05 19:08 | 42.40165 | 18.20106 | 10695 ft | 278 kts | 287° |
| 2026-05-05 19:09 | 42.40772 | 18.17598 | 11421 ft | 282 kts | 287° |
| 2026-05-05 19:09 | 42.41380 | 18.15058 | 12191 ft | 286 kts | 287° |
| 2026-05-05 19:09 | 42.41983 | 18.12495 | 12985 ft | 287 kts | 287° |
| 2026-05-05 19:09 | 42.42602 | 18.09854 | 13318 ft | 305 kts | 287° |
| 2026-05-05 19:10 | 42.43261 | 18.07021 | 13542 ft | 324 kts | 287° |
| 2026-05-05 19:10 | 42.43948 | 18.04069 | 14098 ft | 331 kts | 287° |
| 2026-05-05 19:10 | 42.44641 | 18.01077 | 14698 ft | 334 kts | 287° |
| 2026-05-05 19:10 | 42.45340 | 17.98057 | 15298 ft | 338 kts | 287° |
| 2026-05-05 19:11 | 42.46044 | 17.95012 | 15878 ft | 341 kts | 287° |
| 2026-05-05 19:11 | 42.46758 | 17.91926 | 16484 ft | 345 kts | 287° |
| 2026-05-05 19:11 | 42.47474 | 17.88813 | 17076 ft | 348 kts | 287° |
| 2026-05-05 19:11 | 42.48197 | 17.85661 | 17664 ft | 352 kts | 287° |
| 2026-05-05 19:12 | 42.48925 | 17.82484 | 18258 ft | 355 kts | 287° |
| 2026-05-05 19:12 | 42.49661 | 17.79272 | 18770 ft | 359 kts | 287° |
| 2026-05-05 19:12 | 42.50400 | 17.76031 | 19306 ft | 362 kts | 287° |
| 2026-05-05 19:12 | 42.51144 | 17.72758 | 19870 ft | 363 kts | 287° |
| 2026-05-05 19:13 | 42.51891 | 17.69490 | 20409 ft | 364 kts | 287° |
| 2026-05-05 19:13 | 42.52644 | 17.66194 | 20942 ft | 366 kts | 287° |
| 2026-05-05 19:13 | 42.53143 | 17.64005 | 21290 ft | 368 kts | 287° |
| 2026-05-05 19:13 | 42.53899 | 17.60676 | 21815 ft | 371 kts | 287° |
| 2026-05-05 19:14 | 42.54592 | 17.57296 | 22340 ft | 373 kts | 282° |
| 2026-05-05 19:14 | 42.55119 | 17.53843 | 22860 ft | 376 kts | 282° |
| 2026-05-05 19:14 | 42.55647 | 17.50362 | 23373 ft | 378 kts | 282° |
| 2026-05-05 19:14 | 42.56178 | 17.46858 | 23822 ft | 380 kts | 282° |
| 2026-05-05 19:15 | 42.56710 | 17.43335 | 24239 ft | 382 kts | 282° |
| 2026-05-05 19:15 | 42.57243 | 17.39796 | 24664 ft | 384 kts | 282° |
| 2026-05-05 19:15 | 42.57777 | 17.36246 | 25080 ft | 385 kts | 282° |
| 2026-05-05 19:15 | 42.58315 | 17.32673 | 25480 ft | 387 kts | 282° |
| 2026-05-05 19:16 | 42.58852 | 17.29093 | 25874 ft | 388 kts | 282° |
| 2026-05-05 19:16 | 42.59392 | 17.25504 | 26261 ft | 389 kts | 282° |
| 2026-05-05 19:16 | 42.59934 | 17.21899 | 26636 ft | 391 kts | 282° |
| 2026-05-05 19:16 | 42.60473 | 17.18275 | 27011 ft | 392 kts | 282° |
| 2026-05-05 19:17 | 42.61012 | 17.14645 | 27377 ft | 394 kts | 282° |
| 2026-05-05 19:17 | 42.61554 | 17.10988 | 27742 ft | 395 kts | 282° |
| 2026-05-05 19:17 | 42.62093 | 17.07324 | 28099 ft | 397 kts | 282° |
| 2026-05-05 19:17 | 42.62632 | 17.03643 | 28445 ft | 398 kts | 282° |
| 2026-05-05 19:18 | 42.63170 | 16.99952 | 28802 ft | 399 kts | 282° |
| 2026-05-05 19:18 | 42.63712 | 16.96247 | 29138 ft | 400 kts | 282° |
| 2026-05-05 19:18 | 42.64256 | 16.92527 | 29466 ft | 402 kts | 282° |
| 2026-05-05 19:18 | 42.64799 | 16.88801 | 29780 ft | 403 kts | 282° |
| 2026-05-05 19:19 | 42.65341 | 16.85056 | 30087 ft | 405 kts | 282° |
| 2026-05-05 19:19 | 42.66040 | 16.81356 | 30333 ft | 405 kts | 289° |
| 2026-05-05 19:19 | 42.67172 | 16.77842 | 30584 ft | 407 kts | 295° |
| 2026-05-05 19:19 | 42.68413 | 16.74385 | 30836 ft | 408 kts | 295° |
| 2026-05-05 19:20 | 42.69654 | 16.70912 | 31081 ft | 408 kts | 295° |
| 2026-05-05 19:20 | 42.70888 | 16.67442 | 31415 ft | 407 kts | 295° |
| 2026-05-05 19:20 | 42.72108 | 16.63991 | 31781 ft | 404 kts | 295° |
| 2026-05-05 19:20 | 42.73320 | 16.60552 | 32137 ft | 402 kts | 295° |
| 2026-05-05 19:21 | 42.74521 | 16.57135 | 32503 ft | 400 kts | 295° |
| 2026-05-05 19:21 | 42.75716 | 16.53727 | 32854 ft | 398 kts | 295° |
| 2026-05-05 19:21 | 42.76906 | 16.50345 | 33202 ft | 395 kts | 295° |
| 2026-05-05 19:21 | 42.78092 | 16.46973 | 33532 ft | 394 kts | 295° |
| 2026-05-05 19:22 | 42.79269 | 16.43624 | 33886 ft | 392 kts | 295° |
| 2026-05-05 19:22 | 42.80442 | 16.40283 | 34215 ft | 390 kts | 295° |
| 2026-05-05 19:22 | 42.81606 | 16.36953 | 34491 ft | 389 kts | 295° |
| 2026-05-05 19:22 | 42.82768 | 16.33629 | 34729 ft | 388 kts | 294° |
| 2026-05-05 19:23 | 42.83928 | 16.30308 | 34942 ft | 388 kts | 294° |
| 2026-05-05 19:23 | 42.85089 | 16.26985 | 35160 ft | 389 kts | 294° |
| 2026-05-05 19:23 | 42.86247 | 16.23658 | 35366 ft | 389 kts | 294° |
| 2026-05-05 19:23 | 42.87404 | 16.20325 | 35593 ft | 388 kts | 294° |
| 2026-05-05 19:24 | 42.88559 | 16.16998 | 35805 ft | 388 kts | 294° |
| 2026-05-05 19:24 | 42.89715 | 16.13671 | 35978 ft | 389 kts | 294° |
| 2026-05-05 19:24 | 42.92016 | 16.07037 | 36039 ft | 385 kts | 294° |
| 2026-05-05 19:25 | 42.94298 | 16.00446 | 36041 ft | 384 kts | 294° |
| 2026-05-05 19:25 | 42.96574 | 15.93864 | 36043 ft | 383 kts | 294° |
| 2026-05-05 19:26 | 42.98843 | 15.87286 | 36041 ft | 383 kts | 294° |
| 2026-05-05 19:26 | 43.01105 | 15.80694 | 36040 ft | 383 kts | 294° |
| 2026-05-05 19:27 | 43.03375 | 15.74060 | 36038 ft | 383 kts | 294° |
| 2026-05-05 19:27 | 43.05630 | 15.67457 | 36039 ft | 383 kts | 294° |
| 2026-05-05 19:28 | 43.07889 | 15.60859 | 36047 ft | 383 kts | 293° |
| 2026-05-05 19:28 | 43.10134 | 15.54254 | 36044 ft | 383 kts | 293° |
| 2026-05-05 19:29 | 43.12372 | 15.47643 | 36038 ft | 383 kts | 293° |
| 2026-05-05 19:29 | 43.14601 | 15.41039 | 36028 ft | 382 kts | 293° |
| 2026-05-05 19:30 | 43.16832 | 15.34432 | 36021 ft | 382 kts | 293° |
| 2026-05-05 19:30 | 43.19065 | 15.27822 | 36044 ft | 382 kts | 293° |
| 2026-05-05 19:31 | 43.21290 | 15.21219 | 36035 ft | 382 kts | 292° |
| 2026-05-05 19:31 | 43.23510 | 15.14589 | 36031 ft | 383 kts | 292° |
| 2026-05-05 19:32 | 43.25720 | 15.07955 | 36029 ft | 382 kts | 292° |
| 2026-05-05 19:32 | 43.27932 | 15.01321 | 36024 ft | 382 kts | 292° |
| 2026-05-05 19:33 | 43.30143 | 14.94681 | 36026 ft | 383 kts | 292° |
| 2026-05-05 19:33 | 43.32355 | 14.88018 | 36037 ft | 384 kts | 292° |
| 2026-05-05 19:34 | 43.34557 | 14.81345 | 36027 ft | 383 kts | 291° |
| 2026-05-05 19:35 | 43.37842 | 14.71386 | 36021 ft | 383 kts | 292° |
| 2026-05-05 19:35 | 43.40048 | 14.64708 | 36021 ft | 384 kts | 292° |
| 2026-05-05 19:36 | 43.42247 | 14.58026 | 36019 ft | 384 kts | 291° |
| 2026-05-05 19:36 | 43.44435 | 14.51329 | 36025 ft | 384 kts | 291° |
| 2026-05-05 19:37 | 43.46615 | 14.44631 | 36020 ft | 383 kts | 291° |
| 2026-05-05 19:37 | 43.48793 | 14.37924 | 36027 ft | 384 kts | 291° |
| 2026-05-05 19:38 | 43.50992 | 14.31161 | 36031 ft | 384 kts | 291° |
| 2026-05-05 19:38 | 43.53176 | 14.24449 | 36042 ft | 384 kts | 291° |
| 2026-05-05 19:39 | 43.55344 | 14.17731 | 36041 ft | 384 kts | 291° |
| 2026-05-05 19:39 | 43.57512 | 14.11002 | 36029 ft | 384 kts | 291° |
| 2026-05-05 19:40 | 43.59682 | 14.04260 | 36021 ft | 384 kts | 291° |
| 2026-05-05 19:40 | 43.61851 | 13.97511 | 36018 ft | 385 kts | 291° |
| 2026-05-05 19:41 | 43.64016 | 13.90763 | 36008 ft | 384 kts | 291° |
| 2026-05-05 19:41 | 43.66166 | 13.84015 | 36026 ft | 384 kts | 290° |
| 2026-05-05 19:42 | 43.68317 | 13.77254 | 36019 ft | 385 kts | 290° |
| 2026-05-05 19:42 | 43.70472 | 13.70477 | 36017 ft | 385 kts | 290° |
| 2026-05-05 19:43 | 43.72616 | 13.63682 | 36013 ft | 385 kts | 290° |
| 2026-05-05 19:43 | 43.74761 | 13.56893 | 36016 ft | 386 kts | 290° |
| 2026-05-05 19:44 | 43.76910 | 13.50091 | 36017 ft | 386 kts | 290° |
| 2026-05-05 19:44 | 43.79056 | 13.43285 | 36027 ft | 386 kts | 290° |
| 2026-05-05 19:45 | 43.81194 | 13.36458 | 36023 ft | 387 kts | 290° |
| 2026-05-05 19:45 | 43.83331 | 13.29625 | 36015 ft | 387 kts | 290° |
| 2026-05-05 19:46 | 43.85460 | 13.22793 | 36022 ft | 385 kts | 290° |
| 2026-05-05 19:46 | 43.87582 | 13.15963 | 36002 ft | 386 kts | 290° |
| 2026-05-05 19:47 | 43.89701 | 13.09119 | 35998 ft | 386 kts | 289° |
| 2026-05-05 19:47 | 43.91816 | 13.02268 | 35987 ft | 386 kts | 289° |
| 2026-05-05 19:48 | 43.93934 | 12.95416 | 35985 ft | 386 kts | 289° |
| 2026-05-05 19:48 | 43.96040 | 12.88563 | 35988 ft | 386 kts | 289° |
| 2026-05-05 19:49 | 43.98149 | 12.81703 | 35989 ft | 387 kts | 289° |
| 2026-05-05 19:49 | 44.00256 | 12.74830 | 36007 ft | 387 kts | 289° |
| 2026-05-05 19:50 | 44.02350 | 12.67954 | 36009 ft | 386 kts | 289° |
| 2026-05-05 19:50 | 44.04083 | 12.62236 | 36006 ft | 386 kts | 289° |
| 2026-05-05 19:51 | 44.06186 | 12.55308 | 36004 ft | 386 kts | 289° |
| 2026-05-05 19:51 | 44.08278 | 12.48426 | 36000 ft | 386 kts | 289° |
| 2026-05-05 19:52 | 44.10356 | 12.41539 | 35977 ft | 386 kts | 288° |
| 2026-05-05 19:52 | 44.12433 | 12.34645 | 35989 ft | 386 kts | 288° |
| 2026-05-05 19:53 | 44.14509 | 12.27747 | 35985 ft | 386 kts | 288° |
| 2026-05-05 19:53 | 44.16584 | 12.20841 | 35978 ft | 387 kts | 288° |
| 2026-05-05 19:54 | 44.18650 | 12.13927 | 35982 ft | 387 kts | 288° |
| 2026-05-05 19:54 | 44.20709 | 12.07007 | 35982 ft | 386 kts | 288° |
| 2026-05-05 19:55 | 44.22759 | 12.00079 | 36008 ft | 386 kts | 287° |
| 2026-05-05 19:55 | 44.24807 | 11.93160 | 35999 ft | 385 kts | 287° |
| 2026-05-05 19:56 | 44.26855 | 11.86249 | 35999 ft | 385 kts | 287° |
| 2026-05-05 19:56 | 44.28903 | 11.79324 | 36001 ft | 386 kts | 287° |
| 2026-05-05 19:57 | 44.30947 | 11.72391 | 36028 ft | 386 kts | 287° |
| 2026-05-05 19:57 | 44.32984 | 11.65448 | 36035 ft | 385 kts | 286° |
| 2026-05-05 19:58 | 44.35013 | 11.58526 | 36027 ft | 385 kts | 286° |
| 2026-05-05 19:58 | 44.37032 | 11.51592 | 36012 ft | 385 kts | 286° |
| 2026-05-05 19:59 | 44.39042 | 11.44662 | 36001 ft | 385 kts | 286° |
| 2026-05-05 19:59 | 44.41047 | 11.37725 | 35987 ft | 385 kts | 286° |
| 2026-05-05 20:00 | 44.43048 | 11.30790 | 35982 ft | 384 kts | 286° |
| 2026-05-05 20:00 | 44.45075 | 11.23803 | 36065 ft | 385 kts | 285° |
| 2026-05-05 20:01 | 44.47089 | 11.16832 | 36051 ft | 386 kts | 285° |
| 2026-05-05 20:01 | 44.49092 | 11.09845 | 36046 ft | 387 kts | 285° |
| 2026-05-05 20:02 | 44.51087 | 11.02839 | 36050 ft | 387 kts | 285° |
| 2026-05-05 20:02 | 44.53285 | 10.95913 | 36050 ft | 393 kts | 291° |
| 2026-05-05 20:03 | 44.55860 | 10.89155 | 36051 ft | 393 kts | 291° |
| 2026-05-05 20:03 | 44.58438 | 10.82386 | 36047 ft | 393 kts | 291° |
| 2026-05-05 20:04 | 44.60999 | 10.75619 | 36046 ft | 393 kts | 291° |
| 2026-05-05 20:04 | 44.63550 | 10.68844 | 36046 ft | 393 kts | 291° |
| 2026-05-05 20:05 | 44.66103 | 10.62065 | 36047 ft | 392 kts | 291° |
| 2026-05-05 20:05 | 44.68675 | 10.55244 | 36029 ft | 393 kts | 290° |
| 2026-05-05 20:06 | 44.71220 | 10.48455 | 36026 ft | 393 kts | 290° |
| 2026-05-05 20:06 | 44.73762 | 10.41643 | 36018 ft | 394 kts | 290° |
| 2026-05-05 20:07 | 44.76309 | 10.34817 | 35999 ft | 395 kts | 290° |
| 2026-05-05 20:07 | 44.78853 | 10.27968 | 36024 ft | 394 kts | 290° |
| 2026-05-05 20:08 | 44.81396 | 10.21115 | 35997 ft | 395 kts | 290° |
| 2026-05-05 20:08 | 44.83939 | 10.14236 | 35989 ft | 396 kts | 290° |
| 2026-05-05 20:09 | 44.86492 | 10.07349 | 35984 ft | 397 kts | 290° |
| 2026-05-05 20:09 | 44.89038 | 10.00430 | 35969 ft | 398 kts | 290° |
| 2026-05-05 20:10 | 44.91584 | 9.93499 | 35980 ft | 398 kts | 290° |
| 2026-05-05 20:10 | 44.94127 | 9.86553 | 35971 ft | 398 kts | 289° |
| 2026-05-05 20:11 | 44.96665 | 9.79604 | 35976 ft | 398 kts | 289° |
| 2026-05-05 20:11 | 44.99222 | 9.72600 | 35962 ft | 399 kts | 289° |
| 2026-05-05 20:12 | 45.01764 | 9.65627 | 35957 ft | 399 kts | 289° |
| 2026-05-05 20:12 | 45.04295 | 9.58648 | 35980 ft | 399 kts | 289° |
| 2026-05-05 20:13 | 45.06822 | 9.51657 | 35955 ft | 400 kts | 289° |
| 2026-05-05 20:13 | 45.09350 | 9.44648 | 35952 ft | 400 kts | 289° |
| 2026-05-05 20:14 | 45.11879 | 9.37631 | 35964 ft | 400 kts | 289° |
| 2026-05-05 20:14 | 45.14406 | 9.30609 | 35961 ft | 400 kts | 289° |
| 2026-05-05 20:15 | 45.16924 | 9.23566 | 35983 ft | 401 kts | 289° |
| 2026-05-05 20:15 | 45.19462 | 9.16453 | 35971 ft | 402 kts | 289° |
| 2026-05-05 20:16 | 45.21985 | 9.09379 | 35975 ft | 402 kts | 289° |
| 2026-05-05 20:16 | 45.24502 | 9.02291 | 35972 ft | 402 kts | 288° |
| 2026-05-05 20:17 | 45.27010 | 8.95202 | 35971 ft | 402 kts | 288° |
| 2026-05-05 20:17 | 45.29523 | 8.88097 | 36009 ft | 403 kts | 288° |
| 2026-05-05 20:18 | 45.32034 | 8.80966 | 36000 ft | 404 kts | 288° |
| 2026-05-05 20:18 | 45.34542 | 8.73817 | 35997 ft | 404 kts | 288° |
| 2026-05-05 20:19 | 45.36954 | 8.66607 | 35994 ft | 403 kts | 287° |
| 2026-05-05 20:19 | 45.39323 | 8.59373 | 35996 ft | 404 kts | 287° |
| 2026-05-05 20:20 | 45.41701 | 8.52119 | 36017 ft | 405 kts | 287° |
| 2026-05-05 20:20 | 45.44096 | 8.44851 | 36001 ft | 406 kts | 287° |
| 2026-05-05 20:21 | 45.46109 | 8.38744 | 35988 ft | 407 kts | 287° |
| 2026-05-05 20:21 | 45.48506 | 8.31446 | 35995 ft | 407 kts | 287° |
| 2026-05-05 20:22 | 45.50901 | 8.24129 | 35996 ft | 408 kts | 287° |
| 2026-05-05 20:22 | 45.53292 | 8.16807 | 36014 ft | 408 kts | 287° |
| 2026-05-05 20:23 | 45.55678 | 8.09468 | 36003 ft | 408 kts | 287° |
| 2026-05-05 20:23 | 45.58063 | 8.02101 | 35997 ft | 409 kts | 287° |
| 2026-05-05 20:24 | 45.60451 | 7.94722 | 35987 ft | 412 kts | 287° |
| 2026-05-05 20:24 | 45.62861 | 7.87272 | 35995 ft | 412 kts | 287° |
| 2026-05-05 20:24 | 45.64057 | 7.83558 | 35739 ft | 410 kts | 287° |
| 2026-05-05 20:25 | 45.65245 | 7.79864 | 35280 ft | 407 kts | 287° |
| 2026-05-05 20:25 | 45.66419 | 7.76201 | 34801 ft | 403 kts | 287° |
| 2026-05-05 20:25 | 45.67580 | 7.72571 | 34315 ft | 402 kts | 286° |
| 2026-05-05 20:25 | 45.68740 | 7.68957 | 33802 ft | 397 kts | 286° |
| 2026-05-05 20:26 | 45.69887 | 7.65394 | 33296 ft | 393 kts | 286° |
| 2026-05-05 20:26 | 45.71028 | 7.61817 | 32846 ft | 390 kts | 285° |
| 2026-05-05 20:26 | 45.72151 | 7.58287 | 32397 ft | 389 kts | 287° |
| 2026-05-05 20:26 | 45.73263 | 7.54760 | 31894 ft | 388 kts | 286° |
| 2026-05-05 20:27 | 45.74379 | 7.51260 | 31437 ft | 383 kts | 286° |
| 2026-05-05 20:27 | 45.75482 | 7.47816 | 30953 ft | 379 kts | 287° |
| 2026-05-05 20:27 | 45.76572 | 7.44367 | 30504 ft | 378 kts | 287° |
| 2026-05-05 20:27 | 45.77649 | 7.40960 | 30079 ft | 374 kts | 287° |
| 2026-05-05 20:28 | 45.78726 | 7.37578 | 29593 ft | 373 kts | 286° |
| 2026-05-05 20:28 | 45.79582 | 7.34140 | 29165 ft | 363 kts | 276° |
| 2026-05-05 20:28 | 45.79986 | 7.30626 | 28751 ft | 354 kts | 270° |
| 2026-05-05 20:28 | 45.80251 | 7.27155 | 28347 ft | 348 kts | 270° |
| 2026-05-05 20:29 | 45.80527 | 7.23745 | 27962 ft | 341 kts | 270° |
| 2026-05-05 20:29 | 45.80801 | 7.20404 | 27572 ft | 334 kts | 270° |
| 2026-05-05 20:29 | 45.81067 | 7.17135 | 27186 ft | 328 kts | 270° |
| 2026-05-05 20:29 | 45.81328 | 7.13939 | 26808 ft | 318 kts | 269° |
| 2026-05-05 20:30 | 45.81582 | 7.10807 | 26428 ft | 316 kts | 270° |
| 2026-05-05 20:30 | 45.81907 | 7.07678 | 26065 ft | 321 kts | 277° |
| 2026-05-05 20:30 | 45.82622 | 7.04622 | 25650 ft | 326 kts | 289° |
| 2026-05-05 20:30 | 45.83757 | 7.01771 | 25219 ft | 333 kts | 298° |
| 2026-05-05 20:31 | 45.85073 | 6.99039 | 24788 ft | 333 kts | 298° |
| 2026-05-05 20:31 | 45.86387 | 6.96302 | 24342 ft | 334 kts | 299° |
| 2026-05-05 20:31 | 45.87699 | 6.93559 | 23878 ft | 332 kts | 299° |
| 2026-05-05 20:31 | 45.88998 | 6.90833 | 23434 ft | 330 kts | 299° |
| 2026-05-05 20:32 | 45.90310 | 6.88073 | 22931 ft | 331 kts | 299° |
| 2026-05-05 20:32 | 45.91607 | 6.85344 | 22486 ft | 330 kts | 299° |
| 2026-05-05 20:32 | 45.92894 | 6.82628 | 22050 ft | 329 kts | 299° |
| 2026-05-05 20:32 | 45.94184 | 6.79910 | 21620 ft | 328 kts | 300° |
| 2026-05-05 20:33 | 45.95467 | 6.77208 | 21218 ft | 327 kts | 300° |
| 2026-05-05 20:33 | 45.96756 | 6.74476 | 20807 ft | 327 kts | 299° |
| 2026-05-05 20:33 | 45.98005 | 6.71790 | 20417 ft | 326 kts | 298° |
| 2026-05-05 20:33 | 45.99257 | 6.69079 | 20002 ft | 325 kts | 298° |
| 2026-05-05 20:34 | 46.00506 | 6.66369 | 19602 ft | 325 kts | 298° |
| 2026-05-05 20:34 | 46.01756 | 6.63661 | 19193 ft | 325 kts | 298° |
| 2026-05-05 20:34 | 46.03008 | 6.60948 | 18797 ft | 326 kts | 298° |
| 2026-05-05 20:34 | 46.04260 | 6.58234 | 18401 ft | 325 kts | 298° |
| 2026-05-05 20:35 | 46.05509 | 6.55534 | 17973 ft | 324 kts | 299° |
| 2026-05-05 20:35 | 46.06765 | 6.52847 | 17563 ft | 323 kts | 299° |
| 2026-05-05 20:35 | 46.08022 | 6.50188 | 17171 ft | 320 kts | 300° |
| 2026-05-05 20:35 | 46.09278 | 6.47547 | 16781 ft | 319 kts | 300° |
| 2026-05-05 20:36 | 46.10534 | 6.44906 | 16410 ft | 319 kts | 300° |
| 2026-05-05 20:36 | 46.11787 | 6.42265 | 16039 ft | 319 kts | 300° |
| 2026-05-05 20:36 | 46.13052 | 6.39586 | 15662 ft | 317 kts | 300° |
| 2026-05-05 20:36 | 46.14286 | 6.36963 | 15299 ft | 316 kts | 300° |
| 2026-05-05 20:37 | 46.15514 | 6.34345 | 14923 ft | 315 kts | 300° |
| 2026-05-05 20:37 | 46.16919 | 6.31876 | 14412 ft | 324 kts | 317° |
| 2026-05-05 20:37 | 46.18911 | 6.30300 | 13922 ft | 334 kts | 341° |
| 2026-05-05 20:37 | 46.21243 | 6.30031 | 13451 ft | 341 kts | 8° |
| 2026-05-05 20:38 | 46.23428 | 6.31189 | 13307 ft | 332 kts | 32° |
| 2026-05-05 20:38 | 46.25165 | 6.33336 | 12998 ft | 328 kts | 45° |
| 2026-05-05 20:38 | 46.26773 | 6.35665 | 12625 ft | 326 kts | 46° |
| 2026-05-05 20:38 | 46.28377 | 6.38035 | 12237 ft | 325 kts | 46° |
| 2026-05-05 20:39 | 46.29945 | 6.40371 | 11844 ft | 322 kts | 46° |
| 2026-05-05 20:39 | 46.31496 | 6.42684 | 11154 ft | 320 kts | 46° |
| 2026-05-05 20:39 | 46.33064 | 6.45020 | 10465 ft | 319 kts | 46° |
| 2026-05-05 20:39 | 46.34598 | 6.47301 | 10029 ft | 309 kts | 46° |
| 2026-05-05 20:40 | 46.36052 | 6.49449 | 9861 ft | 290 kts | 46° |
| 2026-05-05 20:40 | 46.37445 | 6.51514 | 9396 ft | 284 kts | 46° |
| 2026-05-05 20:40 | 46.38802 | 6.53535 | 8949 ft | 276 kts | 46° |
| 2026-05-05 20:40 | 46.40173 | 6.55417 | 8837 ft | 269 kts | 33° |
| 2026-05-05 20:41 | 46.41849 | 6.56513 | 8703 ft | 263 kts | 7° |
| 2026-05-05 20:41 | 46.43641 | 6.56549 | 8574 ft | 255 kts | 342° |
| 2026-05-05 20:41 | 46.45276 | 6.55562 | 8455 ft | 258 kts | 319° |
| 2026-05-05 20:41 | 46.46506 | 6.53714 | 8323 ft | 253 kts | 295° |
| 2026-05-05 20:42 | 46.47135 | 6.51388 | 8196 ft | 246 kts | 274° |
| 2026-05-05 20:42 | 46.47150 | 6.48954 | 8067 ft | 240 kts | 260° |
| 2026-05-05 20:42 | 46.46960 | 6.46542 | 7938 ft | 239 kts | 254° |
| 2026-05-05 20:42 | 46.46342 | 6.44335 | 7650 ft | 239 kts | 233° |
| 2026-05-05 20:43 | 46.45243 | 6.42502 | 7078 ft | 240 kts | 224° |
| 2026-05-05 20:43 | 46.44088 | 6.40836 | 6729 ft | 230 kts | 224° |
| 2026-05-05 20:43 | 46.42974 | 6.39204 | 6417 ft | 226 kts | 225° |
| 2026-05-05 20:43 | 46.41883 | 6.37587 | 6114 ft | 223 kts | 225° |
| 2026-05-05 20:44 | 46.40809 | 6.35992 | 5802 ft | 219 kts | 225° |
| 2026-05-05 20:44 | 46.39755 | 6.34429 | 5534 ft | 215 kts | 225° |
| 2026-05-05 20:44 | 46.38721 | 6.32897 | 5242 ft | 211 kts | 225° |
| 2026-05-05 20:44 | 46.37699 | 6.31384 | 4963 ft | 210 kts | 225° |
| 2026-05-05 20:45 | 46.35664 | 6.28373 | 4410 ft | 208 kts | 225° |
| 2026-05-05 20:45 | 46.34663 | 6.26892 | 4128 ft | 204 kts | 225° |
| 2026-05-05 20:45 | 46.33691 | 6.25455 | 3859 ft | 195 kts | 225° |
| 2026-05-05 20:46 | 46.32769 | 6.24094 | 3637 ft | 185 kts | 224° |
| 2026-05-05 20:46 | 46.31867 | 6.22765 | 3372 ft | 180 kts | 224° |
| 2026-05-05 20:46 | 46.31012 | 6.21502 | 3126 ft | 169 kts | 224° |
| 2026-05-05 20:46 | 46.30226 | 6.20343 | 2906 ft | 158 kts | 224° |
| 2026-05-05 20:47 | 46.29483 | 6.19248 | 2689 ft | 146 kts | 224° |
| 2026-05-05 20:47 | 46.28784 | 6.18219 | 2503 ft | 140 kts | 225° |
| 2026-05-05 20:47 | 46.28101 | 6.17214 | 2300 ft | 141 kts | 226° |
| 2026-05-05 20:47 | 46.27410 | 6.16196 | 2100 ft | 143 kts | 227° |
| 2026-05-05 20:48 | 46.26702 | 6.15168 | 1918 ft | 144 kts | 226° |
| 2026-05-05 20:48 | 46.26002 | 6.14139 | 1706 ft | 144 kts | 227° |
| 2026-05-05 20:48 | 46.25537 | 6.13445 | 1552 ft | 142 kts | 226° |
| 2026-05-05 20:48 | 46.24832 | 6.12423 | 1381 ft | 139 kts | 225° |
| 2026-05-05 20:49 | 46.24239 | 6.11533 | 1374 ft | 91 kts | 226° |
| 2026-05-05 20:49 | 46.23924 | 6.11064 | 1379 ft | 47 kts | 225° |
| 2026-05-05 20:49 | 46.23772 | 6.10849 | 1381 ft | 26 kts | 218° |
| 2026-05-05 20:49 | 46.23651 | 6.10761 | 1380 ft | 11 kts | 194° |
| 2026-05-05 20:50 | 46.23575 | 6.10720 | 1382 ft | 11 kts | 199° |
| 2026-05-05 20:50 | 46.23510 | 6.10692 | 1384 ft | 7 kts | 195° |
| 2026-05-05 20:50 | 46.23474 | 6.10679 | 1387 ft | 7 kts | 191° |
| 2026-05-05 20:50 | 46.23407 | 6.10723 | 1401 ft | 11 kts | 140° |
| 2026-05-05 20:51 | 46.23356 | 6.10790 | 1394 ft | 9 kts | 141° |
| 2026-05-05 20:51 | 46.23295 | 6.10793 | 1403 ft | 11 kts | 194° |
| 2026-05-05 20:51 | 46.23228 | 6.10746 | 1402 ft | 11 kts | 224° |
| 2026-05-05 20:51 | 46.23193 | 6.10705 | 1400 ft | 4 kts | 190° |
| 2026-05-05 20:52 | 46.23173 | 6.10716 | 1393 ft | 3 kts | 147° |
| 2026-05-05 20:52 | 46.23155 | 6.10741 | 1393 ft | 1 kts | 135° |